createdAt,value
2023-02-14T00:37:19.186Z,108.13
2023-02-14T00:38:19.138Z,110.49
2023-02-14T00:39:19.090Z,104.60
2023-02-14T00:40:19.046Z,106.04
2023-02-14T00:41:19.030Z,104.44
2023-02-14T00:42:18.941Z,106.01
2023-02-14T00:43:18.904Z,107.91
2023-02-14T00:44:18.864Z,106.11
2023-02-14T00:45:18.787Z,107.22
2023-02-14T00:46:18.756Z,106.15
2023-02-14T00:47:18.726Z,105.02
2023-02-14T00:48:18.648Z,108.19
2023-02-14T00:49:18.643Z,103.74
2023-02-14T00:50:18.572Z,105.02
2023-02-14T00:51:18.517Z,104.99
2023-02-14T00:52:18.504Z,105.85
2023-02-14T00:53:18.416Z,104.02
2023-02-14T00:54:18.353Z,105.58
2023-02-14T00:55:18.306Z,104.00
2023-02-14T00:56:18.274Z,105.74
2023-02-14T00:57:18.237Z,105.53
2023-02-14T00:58:18.177Z,103.75
2023-02-14T00:59:18.132Z,105.84
2023-02-14T01:00:18.101Z,102.71
2023-02-14T01:01:18.060Z,104.32
2023-02-14T01:02:18.012Z,105.49
2023-02-14T01:03:17.944Z,103.53
2023-02-14T01:04:17.855Z,103.67
2023-02-14T01:05:17.818Z,103.92
2023-02-14T01:06:17.756Z,104.41
2023-02-14T01:07:17.721Z,102.76
2023-02-14T01:08:17.770Z,104.57
2023-02-14T01:09:17.649Z,101.85
2023-02-14T01:10:17.572Z,101.80
2023-02-14T01:11:17.560Z,101.59
2023-02-14T01:12:17.457Z,102.68
2023-02-14T01:13:17.476Z,104.62
2023-02-14T01:14:17.374Z,102.07
2023-02-14T01:15:17.363Z,102.22
2023-02-14T01:16:17.311Z,102.26
2023-02-14T01:17:17.282Z,103.67
2023-02-14T01:18:17.216Z,104.89
2023-02-14T01:19:17.120Z,104.46
2023-02-14T01:20:17.097Z,104.55
2023-02-14T01:21:17.066Z,102.26
2023-02-14T01:22:17.018Z,102.27
2023-02-14T01:23:16.937Z,101.23
2023-02-14T01:24:16.911Z,101.97
2023-02-14T01:25:16.888Z,101.93
2023-02-14T01:26:16.858Z,101.62
2023-02-14T01:27:16.799Z,103.62
2023-02-14T01:28:16.744Z,102.46
2023-02-14T01:29:16.687Z,103.27
2023-02-14T01:30:16.731Z,102.92
2023-02-14T01:31:16.712Z,103.43
2023-02-14T01:32:16.586Z,101.48
2023-02-14T01:33:16.497Z,103.00
2023-02-14T01:34:16.425Z,101.53
2023-02-14T01:35:16.396Z,100.58
2023-02-14T01:36:16.319Z,100.16
2023-02-14T01:37:16.291Z,98.73
2023-02-14T01:38:16.293Z,100.79
2023-02-14T01:39:16.213Z,102.30
2023-02-14T01:40:16.154Z,101.22
2023-02-14T01:41:16.105Z,99.31
2023-02-14T01:42:16.155Z,99.91
2023-02-14T01:43:16.017Z,100.92
2023-02-14T01:44:15.961Z,98.27
2023-02-14T01:45:15.918Z,98.57
2023-02-14T01:46:15.936Z,100.57
2023-02-14T01:47:15.849Z,96.70
2023-02-14T01:48:15.772Z,98.62
2023-02-14T01:49:15.768Z,97.29
2023-02-14T01:50:15.680Z,97.50
2023-02-14T01:51:15.649Z,99.16
2023-02-14T01:52:15.590Z,98.71
2023-02-14T01:53:15.560Z,98.96
2023-02-14T01:54:15.517Z,99.20
2023-02-14T01:55:15.491Z,99.59
2023-02-14T01:56:15.430Z,98.85
2023-02-14T01:57:15.363Z,99.72
2023-02-14T01:58:15.344Z,99.36
2023-02-14T01:59:15.311Z,100.56
2023-02-14T02:00:15.220Z,99.35
2023-02-14T02:01:15.179Z,97.79
2023-02-14T02:02:15.141Z,100.00
2023-02-14T02:03:15.080Z,98.33
2023-02-14T02:04:15.025Z,97.57
2023-02-14T02:05:14.962Z,100.34
2023-02-14T02:06:14.935Z,98.92
2023-02-14T02:07:14.899Z,98.33
2023-02-14T02:08:14.842Z,98.62
2023-02-14T02:09:14.813Z,94.34
2023-02-14T02:10:14.759Z,95.13
2023-02-14T02:11:14.670Z,95.21
2023-02-14T02:12:14.620Z,98.42
2023-02-14T02:13:14.576Z,98.35
2023-02-14T02:14:14.592Z,99.23
2023-02-14T02:15:14.483Z,97.62
2023-02-14T02:16:14.440Z,97.48
2023-02-14T02:17:14.386Z,98.31
2023-02-14T02:18:14.338Z,95.78
2023-02-14T02:19:14.252Z,94.84
2023-02-14T02:20:14.204Z,95.19
2023-02-14T02:21:14.158Z,97.06
2023-02-14T02:22:14.111Z,96.97
2023-02-14T02:23:14.078Z,94.25
2023-02-14T02:24:13.992Z,97.84
2023-02-14T02:25:13.961Z,94.07
2023-02-14T02:49:12.795Z,26.23
2023-02-14T02:50:12.698Z,26.03
2023-02-14T02:51:12.657Z,27.41
2023-02-14T02:52:12.578Z,26.64
2023-02-14T02:53:12.520Z,25.00
2023-02-14T02:54:12.473Z,25.00
2023-02-14T02:55:12.427Z,25.00
2023-02-14T02:56:12.352Z,24.25
2023-02-14T02:57:12.290Z,25.00
2023-02-14T02:58:12.223Z,24.75
2023-02-14T02:59:12.202Z,25.00
2023-02-14T03:00:12.135Z,29.76
2023-02-14T03:01:12.112Z,30.59
2023-02-14T03:02:12.012Z,30.05
2023-02-14T03:03:12.072Z,28.54
2023-02-14T03:04:11.927Z,30.61
2023-02-14T03:05:11.924Z,27.33
2023-02-14T03:07:11.753Z,29.62
2023-02-14T03:08:11.708Z,25.00
2023-02-14T03:09:11.663Z,25.00
2023-02-14T03:10:11.589Z,25.00
2023-02-14T03:11:11.555Z,25.00
2023-02-14T03:12:11.495Z,29.87
2023-02-14T03:13:11.442Z,31.10
2023-02-14T03:14:11.428Z,26.17
2023-02-14T03:15:11.322Z,25.00
2023-02-14T03:16:11.325Z,25.08
2023-02-14T03:17:11.248Z,25.94
2023-02-14T03:18:11.166Z,28.30
2023-02-14T03:19:11.152Z,31.67
2023-02-14T03:20:11.075Z,45.35
2023-02-14T03:21:11.021Z,49.02
2023-02-14T03:22:10.980Z,57.61
2023-02-14T03:23:10.974Z,49.79
2023-02-14T03:24:10.873Z,53.68
2023-02-14T03:25:10.830Z,53.05
2023-02-14T03:26:10.779Z,46.40
2023-02-14T03:27:10.737Z,39.40
2023-02-14T03:28:10.686Z,33.36
2023-02-14T03:29:10.652Z,31.59
2023-02-14T03:30:10.603Z,27.60
2023-02-14T03:31:10.594Z,26.25
2023-02-14T03:32:10.726Z,25.00
2023-02-14T03:33:10.437Z,27.90
2023-02-14T03:34:10.409Z,26.38
2023-02-14T03:35:10.375Z,26.00
2023-02-14T03:36:10.292Z,25.00
2023-02-14T03:37:10.230Z,25.49
2023-02-14T03:38:10.193Z,25.00
2023-02-14T03:39:10.145Z,28.22
2023-02-14T03:40:10.116Z,25.00
2023-02-14T03:41:10.049Z,28.59
2023-02-14T03:42:10.025Z,28.62
2023-02-14T03:43:09.993Z,29.58
2023-02-14T03:44:09.896Z,31.28
2023-02-14T03:45:09.926Z,36.02
2023-02-14T03:46:09.835Z,44.20
2023-02-14T03:47:09.785Z,58.00
2023-02-14T03:48:09.709Z,67.70
2023-02-14T03:49:09.684Z,79.22
2023-02-14T03:50:09.635Z,87.65
2023-02-14T03:51:09.573Z,95.55
2023-02-14T03:52:09.514Z,99.52
2023-02-14T03:53:09.488Z,98.88
2023-02-14T03:54:09.420Z,101.24
2023-02-14T03:55:09.385Z,96.73
2023-02-14T03:56:09.325Z,91.11
2023-02-14T03:57:09.293Z,88.37
2023-02-14T03:58:09.242Z,92.33
2023-02-14T03:59:09.167Z,95.73
2023-02-14T04:00:09.145Z,95.11
2023-02-14T04:01:09.057Z,95.68
2023-02-14T04:02:09.022Z,94.84
2023-02-14T04:03:09.012Z,96.13
2023-02-14T04:04:08.910Z,92.93
2023-02-14T04:05:08.873Z,86.77
2023-02-14T04:06:08.840Z,87.08
2023-02-14T04:07:08.753Z,83.18
2023-02-14T04:08:08.713Z,83.41
2023-02-14T04:09:08.660Z,83.94
2023-02-14T04:10:08.605Z,85.80
2023-02-14T04:11:08.566Z,88.06
2023-02-14T04:12:08.513Z,82.25
2023-02-14T04:13:08.468Z,83.97
2023-02-14T04:14:08.430Z,82.45
2023-02-14T04:15:08.396Z,82.93
2023-02-14T04:16:08.349Z,80.23
2023-02-14T04:17:08.285Z,76.53
2023-02-14T04:18:08.208Z,73.72
2023-02-14T04:19:08.188Z,72.07
2023-02-14T04:20:08.148Z,70.78
2023-02-14T04:21:08.116Z,71.03
2023-02-14T04:22:08.022Z,67.95
2023-02-14T04:23:07.995Z,64.16
2023-02-14T04:24:07.923Z,58.41
2023-02-14T04:25:07.938Z,60.72
2023-02-14T04:26:07.842Z,61.56
2023-02-14T04:27:07.801Z,65.69
2023-02-14T04:28:07.765Z,66.89
2023-02-14T04:29:07.695Z,66.85
2023-02-14T04:30:07.794Z,65.94
2023-02-14T04:31:07.703Z,66.24
2023-02-14T04:32:07.628Z,61.16
2023-02-14T04:33:07.517Z,57.24
2023-02-14T04:34:07.474Z,54.00
2023-02-14T04:35:07.438Z,49.22
2023-02-14T04:36:07.363Z,46.24
2023-02-14T04:37:07.326Z,43.65
2023-02-14T04:38:07.292Z,48.04
2023-02-14T04:39:07.213Z,48.40
2023-02-14T04:40:08.152Z,52.24
2023-02-14T04:41:07.119Z,53.58
2023-02-14T04:42:07.091Z,61.08
2023-02-14T04:43:07.048Z,62.12
2023-02-14T04:44:06.994Z,63.67
2023-02-14T04:45:06.919Z,65.50
2023-02-14T04:46:06.964Z,59.98
2023-02-14T04:47:06.847Z,58.46
2023-02-14T04:48:06.839Z,51.77
2023-02-14T04:49:06.755Z,50.57
2023-02-14T04:50:06.694Z,49.12
2023-02-14T04:51:06.672Z,49.84
2023-02-14T04:52:06.603Z,51.29
2023-02-14T04:53:06.559Z,50.94
2023-02-14T04:54:06.506Z,53.06
2023-02-14T04:55:06.509Z,51.82
2023-02-14T04:56:06.423Z,56.49
2023-02-14T04:57:06.373Z,57.13
2023-02-14T04:58:06.311Z,54.69
2023-02-14T04:59:06.272Z,58.68
2023-02-14T05:00:06.225Z,53.35
2023-02-14T05:01:06.304Z,51.67
2023-02-14T05:02:06.186Z,49.63
2023-02-14T05:03:06.066Z,45.93
2023-02-14T05:04:06.025Z,33.17
2023-02-14T05:05:05.997Z,30.68
2023-02-14T05:06:05.924Z,26.82
2023-02-14T05:07:05.874Z,30.77
2023-02-14T05:08:05.814Z,31.12
2023-02-14T05:09:05.773Z,31.66
2023-02-14T05:10:05.727Z,34.27
2023-02-14T05:11:05.662Z,32.13
2023-02-14T05:12:05.613Z,30.36
2023-02-14T05:13:05.572Z,32.88
2023-02-14T05:14:05.523Z,39.19
2023-02-14T05:15:05.432Z,42.95
2023-02-14T05:16:05.463Z,43.14
2023-02-14T05:17:05.347Z,44.24
2023-02-14T05:18:05.323Z,45.48
2023-02-14T05:19:05.253Z,49.74
2023-02-14T05:20:05.196Z,50.40
2023-02-14T05:21:05.163Z,39.40
2023-02-14T05:22:05.099Z,36.15
2023-02-14T05:23:05.028Z,27.59
2023-02-14T05:24:04.977Z,31.20
2023-02-14T05:25:04.947Z,35.35
2023-02-14T05:26:04.858Z,38.30
2023-02-14T05:27:04.804Z,38.03
2023-02-14T05:28:04.803Z,38.26
2023-02-14T05:29:04.693Z,38.23
2023-02-14T05:30:04.687Z,37.31
2023-02-14T05:31:04.807Z,37.53
2023-02-14T05:32:04.539Z,34.25
2023-02-14T05:33:04.468Z,38.55
2023-02-14T05:34:04.417Z,42.90
2023-02-14T05:35:04.362Z,42.98
2023-02-14T05:36:04.333Z,43.67
2023-02-14T05:37:04.229Z,45.51
2023-02-14T05:38:04.202Z,45.06
2023-02-14T05:39:04.154Z,45.58
2023-02-14T05:40:04.085Z,43.59
2023-02-14T05:41:04.065Z,46.36
2023-02-14T05:42:03.975Z,44.23
2023-02-14T05:43:03.931Z,43.37
2023-02-14T05:44:03.910Z,45.41
2023-02-14T05:45:03.878Z,45.00
2023-02-14T05:46:03.829Z,45.31
2023-02-14T05:47:03.765Z,46.55
2023-02-14T05:48:03.653Z,50.44
2023-02-14T05:49:03.607Z,55.59
2023-02-14T05:50:03.567Z,64.12
2023-02-14T05:51:03.517Z,62.49
2023-02-14T05:52:03.478Z,61.88
2023-02-14T05:53:03.412Z,62.04
2023-02-14T05:54:03.397Z,62.61
2023-02-14T05:55:03.285Z,62.26
2023-02-14T05:56:03.253Z,61.41
2023-02-14T05:57:03.199Z,63.04
2023-02-14T05:58:03.152Z,67.19
2023-02-14T05:59:03.085Z,66.34
2023-02-14T06:00:03.039Z,67.53
2023-02-14T06:01:03.128Z,72.31
2023-02-14T06:02:02.991Z,67.72
2023-02-14T06:03:02.873Z,67.07
2023-02-14T06:04:02.977Z,68.44
2023-02-14T06:05:02.757Z,72.24
2023-02-14T06:06:02.704Z,72.96
2023-02-14T06:07:02.673Z,79.23
2023-02-14T06:08:02.608Z,71.93
2023-02-14T06:09:02.586Z,74.84
2023-02-14T06:10:02.498Z,73.81
2023-02-14T06:11:02.649Z,78.04
2023-02-14T06:12:02.411Z,82.29
2023-02-14T06:13:02.357Z,90.29
2023-02-14T06:14:02.287Z,85.88
2023-02-14T06:15:02.236Z,86.58
2023-02-14T06:16:02.149Z,82.24
2023-02-14T06:17:02.271Z,86.19
2023-02-14T06:18:02.058Z,86.07
2023-02-14T06:19:02.120Z,89.65
2023-02-14T06:20:02.018Z,93.14
2023-02-14T06:21:02.288Z,93.27
2023-02-14T06:22:01.901Z,93.42
2023-02-14T06:23:01.841Z,93.40
2023-02-14T06:24:01.767Z,94.25
2023-02-14T06:25:01.702Z,96.66
2023-02-14T06:26:01.673Z,98.29
2023-02-14T06:27:01.629Z,97.78
2023-02-14T06:28:01.580Z,93.48
2023-02-14T06:29:01.504Z,94.13
2023-02-14T06:30:01.531Z,96.65
2023-02-14T06:31:01.836Z,97.59
2023-02-14T06:32:01.508Z,93.66
2023-02-14T06:33:01.336Z,93.95
2023-02-14T06:34:01.269Z,96.20
2023-02-14T06:35:01.230Z,101.00
2023-02-14T06:36:01.199Z,108.73
2023-02-14T06:37:01.166Z,113.67
2023-02-14T06:38:01.069Z,118.39
2023-02-14T06:45:01.192Z,143.22
2023-02-14T07:14:59.209Z,132.16
2023-02-14T07:17:58.998Z,138.61
2023-02-14T07:19:58.925Z,140.87
2023-02-14T07:20:59.133Z,138.78
2023-02-14T07:22:58.738Z,139.88
2023-02-14T07:24:58.658Z,142.04
2023-02-14T07:25:58.573Z,136.27
2023-02-14T07:26:58.569Z,143.99
2023-02-14T07:27:58.527Z,140.39
2023-02-14T07:28:58.501Z,139.28
2023-02-14T07:29:58.424Z,138.99
2023-02-14T07:30:58.836Z,135.95
2023-02-14T07:31:58.463Z,138.50
2023-02-14T07:32:58.241Z,141.22
2023-02-14T07:33:58.217Z,137.01
2023-02-14T07:34:58.134Z,131.37
2023-02-14T07:35:58.075Z,125.66
2023-02-14T07:36:58.127Z,124.33
2023-02-14T07:37:57.960Z,123.33
2023-02-14T07:38:57.955Z,127.91
2023-02-14T07:39:57.864Z,131.44
2023-02-14T07:40:58.112Z,138.53
2023-02-14T07:41:57.780Z,141.70
2023-02-14T07:42:57.722Z,153.41
2023-02-14T07:43:57.670Z,151.38
2023-02-14T07:44:57.598Z,154.55
2023-02-14T07:45:57.608Z,157.70
2023-02-14T07:46:57.541Z,158.25
2023-02-14T07:47:57.753Z,157.95
2023-02-14T07:48:57.472Z,158.15
2023-02-14T07:49:57.446Z,158.97
2023-02-14T07:50:57.333Z,159.89
2023-02-14T07:51:57.303Z,159.02
2023-02-14T07:52:57.226Z,160.90
2023-02-14T07:53:57.196Z,157.10
2023-02-14T07:54:57.110Z,161.68
2023-02-14T07:55:57.090Z,156.90
2023-02-14T07:56:57.028Z,160.48
2023-02-14T07:57:56.994Z,156.70
2023-02-14T07:58:56.940Z,155.70
2023-02-14T07:59:56.899Z,157.55
2023-02-14T08:00:56.976Z,158.37
2023-02-14T08:01:56.812Z,163.37
2023-02-14T08:02:56.764Z,161.40
2023-02-14T08:03:56.686Z,163.04
2023-02-14T08:04:56.694Z,162.49
2023-02-14T08:05:56.631Z,164.26
2023-02-14T08:06:56.617Z,167.33
2023-02-14T08:07:56.641Z,166.66
2023-02-14T08:08:56.447Z,167.13
2023-02-14T08:09:56.453Z,169.29
2023-02-14T08:10:56.408Z,166.05
2023-02-14T08:11:56.318Z,167.38
2023-02-14T08:12:56.294Z,167.33
2023-02-14T08:13:56.281Z,165.61
2023-02-14T08:14:56.268Z,163.86
2023-02-14T08:15:56.150Z,163.16
2023-02-14T08:16:56.066Z,161.85
2023-02-14T08:17:55.995Z,162.53
2023-02-14T08:18:56.067Z,157.11
2023-02-14T08:19:56.012Z,154.41
2023-02-14T08:20:55.931Z,154.05
2023-02-14T08:21:55.823Z,152.86
2023-02-14T08:22:55.779Z,150.60
2023-02-14T08:23:55.755Z,152.28
2023-02-14T08:24:55.693Z,148.10
2023-02-14T08:25:55.667Z,146.82
2023-02-14T08:26:55.613Z,142.17
2023-02-14T08:27:55.564Z,134.44
2023-02-14T08:28:55.488Z,130.54
2023-02-14T08:29:55.482Z,118.89
2023-02-14T08:30:55.433Z,119.06
2023-02-14T08:31:55.450Z,108.07
2023-02-14T08:32:55.336Z,108.87
2023-02-14T08:33:55.262Z,102.59
2023-02-14T08:34:55.264Z,93.25
2023-02-14T08:35:55.156Z,90.01
2023-02-14T08:36:55.135Z,81.63
2023-02-14T08:37:55.021Z,77.87
2023-02-14T08:38:54.998Z,93.62
2023-02-14T08:39:54.929Z,93.96
2023-02-14T08:40:54.909Z,95.68
2023-02-14T08:41:54.847Z,100.36
2023-02-14T08:42:54.768Z,94.57
2023-02-14T08:43:54.797Z,98.73
2023-02-14T08:44:54.666Z,107.59
2023-02-14T08:45:54.665Z,119.37
2023-02-14T08:46:54.550Z,136.90
2023-02-14T08:47:54.468Z,145.17
2023-02-14T08:48:54.435Z,146.03
2023-02-14T08:49:54.344Z,150.78
2023-02-14T08:50:54.355Z,150.80
2023-02-14T08:51:54.255Z,156.62
2023-02-14T08:52:54.210Z,157.76
2023-02-14T08:53:54.132Z,157.82
2023-02-14T08:54:54.065Z,158.01
2023-02-14T08:55:54.009Z,158.72
2023-02-14T08:56:53.922Z,161.28
2023-02-14T08:57:53.894Z,162.40
2023-02-14T08:58:53.795Z,165.52
2023-02-14T08:59:53.737Z,167.44
2023-02-14T09:00:53.724Z,169.53
2023-02-14T09:01:53.625Z,171.13
2023-02-14T09:02:53.565Z,170.75
2023-02-14T09:03:53.668Z,171.89
2023-02-14T09:04:54.269Z,171.40
2023-02-14T09:05:53.770Z,176.70
2023-02-14T09:06:53.258Z,176.59
2023-02-14T09:07:53.195Z,177.32
2023-02-14T09:08:53.153Z,179.36
2023-02-14T09:09:53.031Z,178.34
2023-02-14T09:10:53.067Z,178.65
2023-02-14T09:11:52.916Z,179.35
2023-02-14T09:12:52.860Z,181.31
2023-02-14T09:13:52.734Z,178.79
2023-02-14T09:14:52.708Z,180.15
2023-02-14T09:15:52.617Z,182.02
2023-02-14T09:16:52.647Z,185.51
2023-02-14T09:17:52.511Z,193.04
2023-02-14T09:18:52.428Z,192.37
2023-02-14T09:19:52.345Z,192.63
2023-02-14T09:20:52.289Z,193.77
2023-02-14T09:21:52.240Z,189.80
2023-02-14T09:22:52.118Z,194.18
2023-02-14T09:23:52.047Z,194.52
2023-02-14T09:24:51.980Z,194.71
2023-02-14T09:25:51.891Z,194.89
2023-02-14T09:26:51.813Z,193.25
2023-02-14T09:27:51.760Z,193.49
2023-02-14T09:28:51.665Z,193.96
2023-02-14T09:29:51.641Z,193.90
2023-02-14T09:30:54.311Z,194.89
2023-02-14T09:31:51.528Z,196.81
2023-02-14T09:32:51.359Z,197.84
2023-02-14T09:33:51.324Z,195.13
2023-02-14T09:34:51.226Z,197.62
2023-02-14T09:35:51.159Z,195.23
2023-02-14T09:36:51.115Z,192.42
2023-02-14T09:37:51.000Z,196.71
2023-02-14T09:38:50.932Z,197.01
2023-02-14T09:39:50.930Z,197.14
2023-02-14T09:40:50.789Z,195.18
2023-02-14T09:41:50.756Z,193.83
2023-02-14T09:42:50.632Z,194.82
2023-02-14T09:43:50.591Z,194.38
2023-02-14T09:44:50.490Z,194.89
2023-02-14T09:45:50.449Z,194.96
2023-02-14T09:46:50.353Z,193.36
2023-02-14T09:47:50.261Z,194.83
2023-02-14T09:48:50.188Z,194.05
2023-02-14T09:49:50.157Z,194.70
2023-02-14T09:50:50.071Z,194.66
2023-02-14T09:51:50.036Z,191.65
2023-02-14T09:52:49.877Z,189.79
2023-02-14T09:53:49.770Z,191.17
2023-02-14T09:54:49.716Z,194.04
2023-02-14T09:55:49.637Z,192.78
2023-02-14T09:56:51.726Z,193.87
2023-02-14T09:57:49.556Z,192.40
2023-02-14T09:58:49.462Z,190.62
2023-02-14T09:59:49.407Z,192.90
2023-02-14T10:00:49.344Z,194.50
2023-02-14T10:01:49.587Z,192.02
2023-02-14T10:02:49.130Z,194.44
2023-02-14T10:03:49.056Z,195.26
2023-02-14T10:04:48.987Z,191.92
2023-02-14T10:05:48.887Z,196.01
2023-02-14T10:06:48.856Z,195.00
2023-02-14T10:07:48.737Z,195.13
2023-02-14T10:08:48.654Z,197.77
2023-02-14T10:09:48.615Z,194.32
2023-02-14T10:10:48.475Z,198.99
2023-02-14T10:11:48.545Z,198.39
2023-02-14T10:12:48.317Z,198.03
2023-02-14T10:13:48.215Z,198.29
2023-02-14T10:14:48.183Z,195.98
2023-02-14T10:15:48.072Z,195.44
2023-02-14T10:16:47.997Z,198.35
2023-02-14T10:17:47.892Z,197.89
2023-02-14T10:18:47.810Z,197.99
2023-02-14T10:19:47.727Z,197.95
2023-02-14T10:20:47.652Z,198.88
2023-02-14T10:21:48.057Z,197.30
2023-02-14T10:22:47.521Z,198.78
2023-02-14T10:23:47.416Z,202.17
2023-02-14T10:24:47.370Z,199.66
2023-02-14T10:25:47.240Z,201.19
2023-02-14T10:26:47.135Z,198.58
2023-02-14T10:27:47.110Z,198.18
2023-02-14T10:28:46.985Z,198.83
2023-02-14T10:29:46.941Z,199.49
2023-02-14T10:30:46.942Z,198.72
2023-02-14T10:31:46.815Z,201.93
2023-02-14T10:32:46.664Z,199.53
2023-02-14T10:33:46.512Z,197.05
2023-02-14T10:34:46.430Z,197.27
2023-02-14T10:35:46.332Z,198.09
2023-02-14T10:36:46.265Z,197.90
2023-02-14T10:37:46.176Z,199.50
2023-02-14T10:38:46.082Z,198.26
2023-02-14T10:39:45.987Z,199.57
2023-02-14T10:40:46.809Z,199.79
2023-02-14T10:41:45.842Z,200.53
2023-02-14T10:42:45.753Z,201.49
2023-02-14T10:43:45.668Z,202.19
2023-02-14T10:44:45.560Z,205.14
2023-02-14T10:45:45.506Z,205.29
2023-02-14T10:46:45.369Z,202.97
2023-02-14T10:47:45.319Z,202.41
2023-02-14T10:48:45.214Z,201.73
2023-02-14T10:49:45.122Z,202.53
2023-02-14T10:50:45.099Z,203.24
2023-02-14T10:51:44.942Z,201.40
2023-02-14T10:52:44.889Z,201.72
2023-02-14T10:53:44.785Z,202.88
2023-02-14T10:54:44.705Z,206.12
2023-02-14T10:55:44.619Z,199.45
2023-02-14T10:56:44.527Z,200.60
2023-02-14T10:57:44.474Z,203.48
2023-02-14T10:58:44.371Z,204.04
2023-02-14T10:59:44.274Z,203.69
2023-02-14T11:00:44.172Z,203.71
2023-02-14T11:01:44.121Z,205.88
2023-02-14T11:02:44.000Z,201.30
2023-02-14T11:03:44.332Z,198.11
2023-02-14T11:04:43.807Z,202.92
2023-02-14T11:05:46.127Z,202.27
2023-02-14T11:06:43.615Z,200.77
2023-02-14T11:07:43.506Z,203.32
2023-02-14T11:08:43.459Z,201.49
2023-02-14T11:09:43.378Z,201.67
2023-02-14T11:10:43.264Z,202.24
2023-02-14T11:11:43.188Z,204.16
2023-02-14T11:12:43.072Z,204.85
2023-02-14T11:13:42.982Z,204.79
2023-02-14T11:14:42.885Z,205.40
2023-02-14T11:15:42.784Z,204.23
2023-02-14T11:16:42.727Z,203.50
2023-02-14T11:17:42.605Z,204.34
2023-02-14T11:18:42.546Z,203.91
2023-02-14T11:19:42.455Z,206.11
2023-02-14T11:20:42.324Z,207.01
2023-02-14T11:21:42.265Z,209.51
2023-02-14T11:22:42.164Z,205.23
2023-02-14T11:23:42.075Z,208.69
2023-02-14T11:24:41.966Z,208.26
2023-02-14T11:25:41.872Z,206.45
2023-02-14T11:26:41.775Z,206.75
2023-02-14T11:27:41.687Z,207.44
2023-02-14T11:28:42.147Z,203.41
2023-02-14T11:29:41.476Z,209.62
2023-02-14T11:30:41.475Z,212.44
2023-02-14T11:31:41.411Z,206.09
2023-02-14T11:32:41.214Z,209.31
2023-02-14T11:33:41.155Z,198.25
2023-02-14T11:34:41.059Z,205.66
2023-02-14T11:35:40.918Z,207.87
2023-02-14T11:36:40.880Z,203.78
2023-02-14T11:37:40.739Z,201.41
2023-02-14T11:38:40.679Z,203.00
2023-02-14T11:39:40.582Z,207.19
2023-02-14T11:40:40.499Z,207.02
2023-02-14T11:41:40.441Z,204.58
2023-02-14T11:42:40.290Z,208.35
2023-02-14T11:43:40.212Z,204.26
2023-02-14T11:44:40.102Z,205.35
2023-02-14T11:45:40.032Z,204.86
2023-02-14T11:46:52.379Z,202.90
2023-02-14T11:47:40.839Z,203.23
2023-02-14T11:48:39.791Z,203.58
2023-02-14T11:49:39.691Z,200.54
2023-02-14T11:50:39.556Z,204.23
2023-02-14T11:51:39.493Z,209.25
2023-02-14T11:52:39.393Z,209.41
2023-02-14T11:53:39.293Z,203.20
2023-02-14T11:54:39.203Z,205.01
2023-02-14T11:55:39.229Z,201.44
2023-02-14T11:56:39.078Z,201.31
2023-02-14T11:57:38.915Z,199.08
2023-02-14T11:58:38.819Z,197.12
2023-02-14T11:59:38.713Z,205.58
2023-02-14T12:00:38.631Z,204.76
2023-02-14T12:01:38.551Z,195.69
2023-02-14T12:02:38.516Z,201.85
2023-02-14T12:03:38.407Z,202.71
2023-02-14T12:04:45.933Z,203.60
2023-02-14T12:05:39.177Z,203.60
2023-02-14T12:06:38.042Z,201.35
2023-02-14T12:07:37.954Z,202.20
2023-02-14T12:08:37.882Z,206.06
2023-02-14T12:09:37.766Z,205.57
2023-02-14T12:10:37.680Z,199.47
2023-02-14T12:11:37.605Z,201.72
2023-02-14T12:12:37.478Z,203.76
2023-02-14T12:13:37.359Z,205.50
2023-02-14T12:14:37.274Z,202.46
2023-02-14T12:15:37.579Z,199.86
2023-02-14T12:16:37.092Z,204.98
2023-02-14T12:17:36.997Z,208.78
2023-02-14T12:18:36.880Z,202.52
2023-02-14T12:19:36.795Z,196.58
2023-02-14T12:20:36.676Z,201.07
2023-02-14T12:21:36.557Z,203.14
2023-02-14T12:22:36.481Z,201.92
2023-02-14T12:23:36.351Z,200.57
2023-02-14T12:24:36.264Z,201.44
2023-02-14T12:25:36.178Z,202.51
2023-02-14T12:26:36.090Z,200.82
2023-02-14T12:27:35.967Z,198.60
2023-02-14T12:28:36.009Z,200.88
2023-02-14T12:29:35.752Z,200.22
2023-02-14T12:30:35.652Z,200.37
2023-02-14T12:31:35.630Z,199.33
2023-02-14T12:32:35.450Z,200.42
2023-02-14T12:33:35.348Z,202.09
2023-02-14T12:34:35.266Z,201.65
2023-02-14T12:35:35.172Z,202.59
2023-02-14T12:36:35.055Z,201.83
2023-02-14T12:37:34.928Z,201.79
2023-02-14T12:38:34.868Z,205.88
2023-02-14T12:39:34.751Z,202.37
2023-02-14T12:40:34.673Z,202.32
2023-02-14T12:41:34.536Z,202.70
2023-02-14T12:42:34.447Z,203.31
2023-02-14T12:43:34.338Z,203.54
2023-02-14T12:44:34.230Z,202.42
2023-02-14T12:45:34.161Z,197.62
2023-02-14T12:46:34.060Z,201.84
2023-02-14T12:47:33.918Z,202.12
2023-02-14T12:48:33.828Z,203.37
2023-02-14T12:49:33.714Z,203.56
2023-02-14T12:50:33.628Z,203.58
2023-02-14T12:51:33.532Z,203.55
2023-02-14T12:52:33.403Z,207.80
2023-02-14T12:53:33.323Z,204.62
2023-02-14T12:54:33.369Z,206.34
2023-02-14T12:55:33.137Z,204.28
2023-02-14T12:56:33.019Z,202.68
2023-02-14T12:57:32.909Z,201.67
2023-02-14T12:58:32.804Z,204.73
2023-02-14T12:59:32.726Z,201.87
2023-02-14T13:00:32.629Z,202.22
2023-02-14T13:01:38.486Z,205.63
2023-02-14T13:02:33.559Z,205.77
2023-02-14T13:03:32.324Z,204.38
2023-02-14T13:04:32.186Z,205.54
2023-02-14T13:05:32.119Z,205.87
2023-02-14T13:06:31.982Z,205.39
2023-02-14T13:07:31.888Z,206.04
2023-02-14T13:08:31.783Z,203.45
2023-02-14T13:09:31.692Z,206.77
2023-02-14T13:10:31.597Z,203.48
2023-02-14T13:11:31.477Z,200.40
2023-02-14T13:12:31.370Z,204.03
2023-02-14T13:13:31.245Z,205.15
2023-02-14T13:14:31.147Z,204.97
2023-02-14T13:15:31.070Z,205.46
2023-02-14T14:08:25.525Z,197.68
2023-02-14T14:09:25.446Z,193.20
2023-02-14T14:10:25.329Z,191.46
2023-02-14T14:11:25.228Z,197.35
2023-02-14T14:12:25.128Z,195.04
2023-02-14T14:13:24.988Z,192.49
2023-02-14T14:14:24.872Z,197.13
2023-02-14T14:15:24.799Z,192.35
2023-02-14T14:16:24.730Z,197.79
2023-02-14T14:17:24.605Z,194.08
2023-02-14T14:18:24.479Z,196.65
2023-02-14T14:19:24.388Z,191.31
2023-02-14T14:20:24.301Z,191.53
2023-02-14T14:21:24.236Z,191.81
2023-02-14T14:22:24.100Z,192.48
2023-02-14T14:23:23.947Z,193.60
2023-02-14T14:24:23.864Z,193.10
2023-02-14T14:25:23.764Z,195.52
2023-02-14T14:26:23.649Z,188.37
2023-02-14T14:27:23.554Z,190.74
2023-02-14T14:28:23.435Z,189.62
2023-02-14T14:29:23.347Z,193.98
2023-02-14T14:30:23.482Z,190.35
2023-02-14T14:31:23.217Z,193.89
2023-02-14T14:32:23.388Z,189.81
2023-02-14T14:33:22.944Z,188.00
2023-02-14T14:34:22.792Z,190.58
2023-02-14T14:35:22.688Z,187.07
2023-02-14T14:36:22.591Z,191.97
2023-02-14T14:37:22.526Z,188.96
2023-02-14T14:38:22.404Z,189.77
2023-02-14T14:39:22.313Z,191.55
2023-02-14T14:40:22.148Z,189.67
2023-02-14T14:41:22.111Z,189.06
2023-02-14T14:42:22.006Z,188.87
2023-02-14T14:43:21.886Z,187.78
2023-02-14T14:44:21.734Z,185.94
2023-02-14T14:45:21.657Z,187.19
2023-02-14T14:46:21.539Z,193.05
2023-02-14T14:47:21.516Z,187.92
2023-02-14T14:48:21.402Z,185.29
2023-02-14T14:49:21.228Z,182.06
2023-02-14T14:50:21.140Z,190.76
2023-02-14T14:51:21.015Z,183.42
2023-02-14T16:07:13.935Z,172.84
2023-02-14T16:08:13.865Z,172.97
2023-02-14T16:09:13.777Z,169.33
2023-02-14T16:10:13.691Z,172.41
2023-02-14T16:11:13.622Z,172.12
2023-02-14T16:12:13.560Z,170.85
2023-02-14T16:13:13.436Z,174.72
2023-02-14T16:14:13.322Z,173.11
2023-02-14T16:15:13.246Z,170.96
2023-02-14T16:16:13.214Z,170.87
2023-02-14T16:17:13.058Z,172.22
2023-02-14T16:18:12.998Z,173.83
2023-02-14T16:19:12.915Z,173.14
2023-02-14T16:20:13.402Z,169.88
2023-02-14T16:21:12.724Z,174.34
2023-02-14T16:22:12.654Z,173.40
2023-02-14T16:23:12.556Z,174.87
2023-02-14T16:24:12.464Z,170.31